Time;durP1;ratioP1;P1;durP2;ratioP2;P2;SDS_P1;SDS_P2;PMS_P1;PMS_P2;Temp;Humidity;BMP_temperature;BMP_pressure;BME280_temperature;BME280_humidity;BME280_pressure;Samples;Min_cycle;Max_cycle;Signal;HPM_P1;HPM_P2
2021/05/29 00:00:08;;;;;;;3.53;3.23;;;21.30;45.50;;;;;;4989896;28;20473;-48
2021/05/29 00:02:34;;;;;;;3.60;3.30;;;21.30;45.30;;;;;;4990143;28;20461;-49
2021/05/29 00:05:00;;;;;;;3.00;2.80;;;21.40;45.30;;;;;;4987457;28;20446;-46
2021/05/29 00:07:25;;;;;;;3.83;3.53;;;21.40;45.20;;;;;;4989221;28;20202;-48
2021/05/29 00:09:51;;;;;;;3.93;3.57;;;21.40;45.20;;;;;;4984566;28;20655;-49
2021/05/29 00:12:17;;;;;;;3.90;3.60;;;21.40;45.40;;;;;;4989959;28;20573;-49
2021/05/29 00:14:45;;;;;;;3.70;3.40;;;21.40;45.30;;;;;;4988933;28;20191;-48
2021/05/29 00:17:11;;;;;;;3.77;3.47;;;21.40;45.20;;;;;;4992197;28;20624;-49
2021/05/29 00:19:36;;;;;;;3.97;3.60;;;21.30;45.10;;;;;;4991411;28;20442;-46
2021/05/29 00:22:03;;;;;;;4.60;3.70;;;21.20;45.30;;;;;;4984796;28;20201;-50
2021/05/29 00:24:29;;;;;;;3.33;3.10;;;21.10;45.50;;;;;;4987791;28;20643;-48
2021/05/29 00:26:54;;;;;;;4.70;3.97;;;21.00;45.30;;;;;;4990135;28;20504;-49
2021/05/29 00:29:20;;;;;;;3.10;2.90;;;20.80;45.80;;;;;;4987063;28;20760;-50
2021/05/29 00:31:45;;;;;;;3.93;3.60;;;20.80;45.80;;;;;;4986875;28;20660;-48
2021/05/29 00:34:11;;;;;;;3.63;3.43;;;20.80;45.70;;;;;;4988775;28;20190;-49
2021/05/29 00:36:37;;;;;;;3.57;3.27;;;20.90;45.50;;;;;;4987554;28;20535;-49
2021/05/29 00:39:04;;;;;;;4.00;3.60;;;21.00;45.30;;;;;;4988080;28;20203;-48
2021/05/29 00:41:30;;;;;;;2.90;2.70;;;21.00;45.10;;;;;;4983701;28;20219;-49
2021/05/29 00:43:56;;;;;;;2.80;2.60;;;21.00;45.00;;;;;;4986358;28;20481;-48
2021/05/29 00:46:21;;;;;;;3.37;3.07;;;21.10;44.90;;;;;;4989522;28;20285;-49
2021/05/29 00:48:47;;;;;;;3.90;3.50;;;21.10;44.80;;;;;;4985538;28;20312;-45
2021/05/29 00:51:12;;;;;;;3.43;3.20;;;21.00;44.70;;;;;;4992290;28;20993;-45
2021/05/29 00:53:38;;;;;;;3.33;2.70;;;21.00;44.90;;;;;;4988553;28;20202;-49
2021/05/29 00:56:06;;;;;;;4.47;3.27;;;20.90;45.00;;;;;;4991859;28;20198;-49
2021/05/29 00:58:32;;;;;;;3.50;3.20;;;20.70;45.30;;;;;;4985599;28;20232;-46
2021/05/29 01:00:58;;;;;;;4.30;3.10;;;20.50;45.50;;;;;;4987245;28;21043;-47
2021/05/29 01:03:24;;;;;;;3.77;3.47;;;20.30;46.00;;;;;;4983011;28;20469;-48
2021/05/29 01:05:50;;;;;;;4.60;3.60;;;20.20;46.20;;;;;;4988919;28;20536;-46
2021/05/29 01:08:16;;;;;;;3.00;2.80;;;20.00;46.50;;;;;;4988908;28;21613;-49
2021/05/29 01:10:42;;;;;;;3.20;3.00;;;19.90;47.30;;;;;;4987168;28;20445;-47
2021/05/29 01:13:10;;;;;;;2.97;2.77;;;19.80;47.40;;;;;;4989307;28;20438;-48
2021/05/29 01:18:08;;;;;;;3.53;3.20;;;19.90;47.40;;;;;;4989298;28;20452;-47
2021/05/29 01:20:33;;;;;;;4.77;3.00;;;20.00;47.00;;;;;;4987078;28;20538;-49
2021/05/29 01:22:59;;;;;;;4.07;3.37;;;20.10;47.20;;;;;;4986525;28;20579;-47
2021/05/29 01:25:36;;;;;;;3.50;2.97;;;20.10;47.10;;;;;;4987118;28;20636;-48
2021/05/29 01:28:02;;;;;;;4.47;3.97;;;20.10;47.10;;;;;;4987789;28;20232;-47
2021/05/29 01:30:30;;;;;;;3.20;3.00;;;20.20;46.70;;;;;;4983292;28;20467;-46
2021/05/29 01:32:58;;;;;;;3.40;3.10;;;20.20;46.70;;;;;;4988596;28;20452;-45
2021/05/29 01:35:24;;;;;;;5.43;3.30;;;20.10;46.80;;;;;;4986344;28;20449;-46
2021/05/29 01:37:52;;;;;;;3.33;3.10;;;19.90;47.10;;;;;;4986197;28;20846;-46
2021/05/29 01:40:18;;;;;;;3.47;3.20;;;19.90;47.40;;;;;;4988142;28;20494;-49
2021/05/29 01:42:44;;;;;;;3.73;3.40;;;19.70;47.70;;;;;;4987040;28;20537;-45
2021/05/29 01:45:11;;;;;;;4.27;3.10;;;19.70;47.70;;;;;;4987690;28;20453;-46
2021/05/29 01:47:42;;;;;;;2.93;2.73;;;19.70;47.60;;;;;;4985987;28;20571;-49
2021/05/29 01:50:11;;;;;;;3.50;3.20;;;19.70;47.60;;;;;;4987227;28;20457;-46
2021/05/29 01:53:06;;;;;;;3.70;3.40;;;19.70;47.60;;;;;;4984478;28;20441;-46
2021/05/29 01:55:33;;;;;;;4.23;3.40;;;19.60;47.70;;;;;;4972790;28;20462;-46
2021/05/29 01:57:59;;;;;;;3.60;3.30;;;19.50;47.90;;;;;;4982222;28;20444;-46
2021/05/29 02:00:29;;;;;;;3.67;3.37;;;19.60;48.20;;;;;;4990116;28;20452;-45
2021/05/29 02:02:55;;;;;;;3.23;3.03;;;19.60;48.00;;;;;;4991341;28;20449;-45
2021/05/29 02:05:29;;;;;;;3.50;3.20;;;19.70;48.00;;;;;;4992521;28;20453;-48
2021/05/29 02:07:59;;;;;;;3.50;3.20;;;19.70;47.80;;;;;;4993067;28;20564;-48
2021/05/29 02:10:27;;;;;;;3.90;3.50;;;19.60;47.90;;;;;;4990181;28;20517;-45
2021/05/29 02:12:55;;;;;;;4.40;3.90;;;19.70;48.00;;;;;;4992444;28;20511;-47
2021/05/29 02:15:23;;;;;;;5.67;3.90;;;19.70;47.90;;;;;;4986091;28;20446;-48
2021/05/29 02:17:52;;;;;;;3.63;3.33;;;19.60;47.90;;;;;;4989660;28;20449;-45
2021/05/29 02:20:28;;;;;;;6.70;3.50;;;19.50;48.10;;;;;;4986209;28;20449;-45
2021/05/29 02:22:53;;;;;;;3.67;3.37;;;19.50;48.10;;;;;;4987006;28;20453;-47
2021/05/29 02:25:19;;;;;;;3.37;3.17;;;19.50;48.20;;;;;;4990225;28;20959;-44
2021/05/29 02:27:44;;;;;;;3.90;3.50;;;19.60;48.20;;;;;;4990953;28;20194;-44
2021/05/29 02:30:10;;;;;;;2.97;2.77;;;19.60;48.10;;;;;;4990914;28;20758;-46
2021/05/29 02:32:36;;;;;;;3.47;3.10;;;19.60;47.90;;;;;;4993190;28;20198;-46
2021/05/29 02:35:02;;;;;;;3.40;3.20;;;19.70;47.70;;;;;;4993636;28;20448;-46
2021/05/29 02:37:28;;;;;;;6.73;3.70;;;19.80;47.70;;;;;;5005474;28;20597;-44
2021/05/29 02:39:53;;;;;;;3.40;3.07;;;19.80;47.50;;;;;;4985009;28;20450;-44
2021/05/29 02:42:19;;;;;;;3.77;3.47;;;19.90;47.30;;;;;;4991243;28;20625;-46
2021/05/29 02:44:45;;;;;;;3.60;3.40;;;19.90;47.20;;;;;;4987115;28;20227;-48
2021/05/29 02:47:11;;;;;;;3.10;2.70;;;20.00;47.20;;;;;;4992976;28;20195;-45
2021/05/29 02:49:36;;;;;;;3.50;3.20;;;20.00;47.10;;;;;;4989649;28;20730;-45
2021/05/29 02:52:02;;;;;;;3.47;3.17;;;20.00;46.90;;;;;;4988384;28;20202;-46
2021/05/29 02:54:28;;;;;;;3.70;3.30;;;20.00;47.00;;;;;;4989466;28;20202;-48
2021/05/29 02:56:54;;;;;;;8.33;4.07;;;20.00;47.30;;;;;;4989591;28;20203;-48
2021/05/29 02:59:19;;;;;;;5.37;3.50;;;20.00;47.10;;;;;;4988524;28;20310;-45
2021/05/29 03:01:45;;;;;;;4.47;4.17;;;20.00;47.00;;;;;;4992556;28;20191;-46
2021/05/29 03:04:10;;;;;;;3.20;2.93;;;20.00;47.00;;;;;;4985686;28;20699;-45
2021/05/29 03:06:37;;;;;;;2.80;2.60;;;20.00;47.70;;;;;;4993367;28;20198;-48
2021/05/29 03:09:03;;;;;;;4.70;3.70;;;19.90;47.40;;;;;;4991311;28;20232;-45
2021/05/29 03:11:40;;;;;;;7.70;3.37;;;20.00;47.30;;;;;;4990133;28;20448;-45
2021/05/29 03:14:06;;;;;;;3.40;3.10;;;20.00;47.30;;;;;;4988672;28;20464;-45
2021/05/29 03:16:32;;;;;;;3.60;3.30;;;20.10;47.10;;;;;;4989737;28;20815;-47
2021/05/29 03:18:58;;;;;;;5.50;3.80;;;20.10;46.80;;;;;;4992274;28;20453;-47
2021/05/29 03:21:23;;;;;;;2.90;2.70;;;20.10;46.60;;;;;;4991928;28;20321;-44
2021/05/29 03:23:49;;;;;;;3.70;3.43;;;20.00;46.50;;;;;;4988178;28;20214;-45
2021/05/29 03:26:15;;;;;;;3.73;3.13;;;20.00;46.70;;;;;;4990739;28;20191;-44
2021/05/29 03:28:40;;;;;;;3.60;2.77;;;20.00;46.60;;;;;;4989791;28;20230;-45
2021/05/29 03:31:06;;;;;;;3.43;3.13;;;20.00;46.50;;;;;;4990426;28;20206;-45
2021/05/29 03:33:31;;;;;;;3.63;3.33;;;19.90;46.30;;;;;;4987005;28;20567;-45
2021/05/29 03:35:57;;;;;;;3.60;3.30;;;19.90;46.30;;;;;;4989393;28;20247;-45
2021/05/29 03:38:23;;;;;;;7.13;3.50;;;19.80;46.20;;;;;;4991333;28;20242;-45
2021/05/29 03:40:49;;;;;;;3.10;2.80;;;19.80;46.50;;;;;;4990595;28;20379;-46
2021/05/29 03:43:15;;;;;;;3.77;3.57;;;19.70;46.50;;;;;;4991752;28;20529;-44
2021/05/29 03:45:41;;;;;;;3.70;3.40;;;19.70;46.70;;;;;;4986445;28;21002;-46
2021/05/29 03:48:07;;;;;;;3.90;3.57;;;19.60;47.00;;;;;;4981556;28;20560;-47
2021/05/29 03:50:38;;;;;;;3.70;3.40;;;19.60;47.60;;;;;;4992932;28;20237;-44
2021/05/29 03:53:04;;;;;;;4.30;3.90;;;19.50;47.30;;;;;;4988207;28;20191;-44
2021/05/29 03:55:32;;;;;;;4.20;3.90;;;19.40;47.50;;;;;;4988803;28;20972;-47
2021/05/29 03:57:57;;;;;;;5.53;3.87;;;19.20;47.70;;;;;;4986870;28;22673;-45
2021/05/29 04:00:23;;;;;;;4.47;3.60;;;19.00;48.30;;;;;;4989604;28;20509;-44
2021/05/29 04:02:49;;;;;;;3.67;3.40;;;18.50;49.40;;;;;;4986517;28;20207;-45
2021/05/29 04:05:16;;;;;;;3.40;2.90;;;18.00;50.80;;;;;;4991302;28;20195;-44
2021/05/29 04:07:42;;;;;;;3.77;3.50;;;17.80;51.50;;;;;;4985462;28;20468;-44
2021/05/29 04:10:14;;;;;;;3.17;2.97;;;17.50;52.30;;;;;;4988405;28;20445;-44
2021/05/29 04:12:40;;;;;;;4.13;3.77;;;17.40;52.60;;;;;;4989324;28;20885;-45
2021/05/29 04:15:08;;;;;;;3.77;2.83;;;17.40;52.40;;;;;;4990981;28;20449;-45
2021/05/29 04:17:34;;;;;;;3.30;2.83;;;17.00;53.20;;;;;;4983118;28;20449;-48
2021/05/29 04:19:59;;;;;;;3.20;3.00;;;16.80;53.80;;;;;;4988485;28;20453;-47
2021/05/29 04:22:25;;;;;;;5.43;3.30;;;16.70;54.00;;;;;;4988707;28;20197;-44
2021/05/29 04:24:51;;;;;;;4.20;3.23;;;16.80;54.30;;;;;;4991676;28;20229;-48
2021/05/29 04:27:18;;;;;;;4.50;3.23;;;16.70;54.40;;;;;;4988645;28;20207;-48
2021/05/29 04:29:44;;;;;;;3.37;3.07;;;16.70;54.60;;;;;;4985125;28;20555;-48
2021/05/29 04:32:09;;;;;;;3.30;3.00;;;16.60;54.80;;;;;;4988582;28;20441;-48
2021/05/29 04:34:35;;;;;;;5.53;3.20;;;16.70;54.70;;;;;;4989727;28;20685;-48
2021/05/29 04:37:01;;;;;;;3.37;3.10;;;16.80;54.50;;;;;;4989663;28;20242;-47
2021/05/29 04:39:26;;;;;;;4.43;3.77;;;16.80;54.30;;;;;;4985858;28;20191;-46
2021/05/29 04:41:52;;;;;;;3.97;3.63;;;16.90;54.10;;;;;;4989878;28;20214;-47
2021/05/29 04:44:18;;;;;;;3.07;2.87;;;16.80;54.30;;;;;;4987205;28;20199;-46
2021/05/29 04:46:51;;;;;;;6.73;3.17;;;16.80;54.70;;;;;;4988768;28;20394;-48
2021/05/29 04:49:22;;;;;;;3.87;3.10;;;16.80;54.80;;;;;;4988412;28;20234;-47
2021/05/29 04:51:48;;;;;;;4.13;3.70;;;16.90;54.40;;;;;;4985881;28;20469;-48
2021/05/29 04:54:15;;;;;;;3.37;3.10;;;17.10;54.30;;;;;;4989094;28;20488;-48
2021/05/29 04:56:41;;;;;;;4.40;3.83;;;17.20;54.10;;;;;;4991253;28;20441;-45
2021/05/29 04:59:07;;;;;;;4.37;3.40;;;17.30;53.90;;;;;;4987115;28;20473;-44
2021/05/29 05:01:33;;;;;;;4.07;3.57;;;17.20;53.80;;;;;;4985486;28;20214;-47
2021/05/29 05:03:59;;;;;;;4.47;3.73;;;16.70;55.20;;;;;;4990801;28;20470;-48
2021/05/29 05:06:25;;;;;;;3.67;3.37;;;16.80;55.40;;;;;;4988327;28;20673;-45
2021/05/29 05:08:51;;;;;;;3.97;3.23;;;17.00;54.80;;;;;;4982913;28;20485;-44
2021/05/29 05:11:17;;;;;;;9.83;2.87;;;17.20;54.30;;;;;;4983680;28;20321;-49
2021/05/29 05:13:42;;;;;;;3.23;2.57;;;17.30;56.30;;;;;;4988476;28;20680;-46
2021/05/29 05:16:08;;;;;;;3.90;2.90;;;17.70;54.60;;;;;;4991423;28;20198;-45
2021/05/29 05:18:34;;;;;;;4.23;2.67;;;18.20;53.00;;;;;;4985835;28;20202;-45
2021/05/29 05:21:00;;;;;;;3.43;3.13;;;18.60;51.70;;;;;;4985819;28;20209;-48
2021/05/29 05:23:25;;;;;;;4.57;2.63;;;18.90;50.70;;;;;;4988644;28;20438;-46
2021/05/29 05:25:53;;;;;;;4.00;3.07;;;19.20;50.00;;;;;;4990462;28;20230;-48
2021/05/29 05:28:27;;;;;;;2.67;2.43;;;19.40;49.30;;;;;;4987749;28;20340;-49
2021/05/29 05:30:58;;;;;;;2.80;2.60;;;19.60;48.70;;;;;;4985375;28;20456;-48
2021/05/29 05:33:25;;;;;;;3.40;2.80;;;19.80;48.40;;;;;;4984958;28;20960;-45
2021/05/29 05:35:51;;;;;;;5.20;2.90;;;19.90;48.00;;;;;;4991600;28;20453;-48
2021/05/29 05:38:18;;;;;;;2.90;2.60;;;20.10;47.60;;;;;;4991248;28;20513;-47
2021/05/29 05:40:43;;;;;;;2.90;2.60;;;20.20;47.60;;;;;;4993779;28;20449;-46
2021/05/29 05:43:09;;;;;;;3.97;2.50;;;20.30;47.40;;;;;;4994055;28;20473;-46
2021/05/29 05:45:35;;;;;;;3.67;2.53;;;20.30;47.10;;;;;;4994685;28;20202;-48
2021/05/29 05:48:00;;;;;;;2.73;2.53;;;20.50;46.90;;;;;;4994001;28;20250;-45
2021/05/29 05:50:26;;;;;;;2.90;2.70;;;20.60;46.50;;;;;;4987288;28;20569;-44
2021/05/29 05:52:52;;;;;;;2.30;2.20;;;20.70;46.20;;;;;;4994304;28;20209;-46
2021/05/29 05:55:18;;;;;;;3.57;2.90;;;20.80;46.00;;;;;;4994691;28;20194;-46
2021/05/29 05:57:44;;;;;;;2.60;2.40;;;20.80;45.80;;;;;;4994042;28;20852;-45
2021/05/29 06:00:14;;;;;;;4.53;2.50;;;20.80;45.60;;;;;;4994748;28;20194;-46
2021/05/29 06:02:42;;;;;;;2.70;2.50;;;20.90;45.50;;;;;;4988579;28;20477;-45
2021/05/29 06:05:08;;;;;;;3.20;2.00;;;21.10;45.40;;;;;;4988943;28;20494;-46
2021/05/29 06:07:34;;;;;;;5.37;2.90;;;21.20;45.10;;;;;;4988535;28;20445;-49
2021/05/29 06:10:00;;;;;;;2.60;2.40;;;21.20;44.90;;;;;;4994456;28;20925;-45
2021/05/29 06:12:25;;;;;;;2.77;2.57;;;21.20;44.90;;;;;;4994989;28;20190;-45
2021/05/29 06:20:20;;;;;;;2.97;2.37;;;21.50;44.20;;;;;;4992581;28;20992;-45
2021/05/29 06:22:45;;;;;;;4.20;2.47;;;21.60;44.20;;;;;;4989675;28;20473;-47
2021/05/29 06:25:14;;;;;;;2.47;2.27;;;21.60;43.90;;;;;;4993249;28;20191;-48
2021/05/29 06:27:40;;;;;;;2.37;2.27;;;21.70;44.30;;;;;;4993919;28;20285;-45
2021/05/29 06:30:08;;;;;;;3.30;2.67;;;21.80;44.00;;;;;;4989701;28;20489;-45
2021/05/29 06:32:34;;;;;;;2.60;2.40;;;21.90;44.10;;;;;;4992914;28;20583;-45
2021/05/29 06:35:00;;;;;;;2.53;2.33;;;21.90;44.20;;;;;;4991795;28;20429;-44
2021/05/29 06:37:26;;;;;;;3.83;2.60;;;22.00;44.40;;;;;;4991230;28;20472;-45
2021/05/29 06:39:51;;;;;;;2.50;2.30;;;22.00;44.30;;;;;;4993344;28;20650;-44
2021/05/29 06:42:17;;;;;;;3.23;2.20;;;22.00;43.00;;;;;;4994428;28;20194;-44
2021/05/29 06:44:43;;;;;;;7.50;2.10;;;22.10;43.20;;;;;;4993438;28;20194;-46
2021/05/29 06:47:08;;;;;;;2.40;2.23;;;22.10;42.30;;;;;;4992261;28;20606;-45
2021/05/29 06:49:36;;;;;;;2.57;2.03;;;22.20;42.60;;;;;;4992989;28;20373;-45
2021/05/29 06:52:10;;;;;;;3.00;2.50;;;22.30;43.20;;;;;;4991971;28;20226;-44
2021/05/29 06:59:45;;;;;;;3.97;3.00;;;22.40;43.80;;;;;;4993957;28;20204;-45
2021/05/29 07:02:11;;;;;;;2.87;2.60;;;22.40;43.00;;;;;;4993162;28;20889;-47
2021/05/29 07:04:37;;;;;;;4.70;3.40;;;22.40;43.30;;;;;;4981296;28;20214;-45
2021/05/29 07:07:03;;;;;;;3.30;2.90;;;22.50;43.60;;;;;;4984659;28;20666;-45
2021/05/29 07:09:29;;;;;;;3.50;3.20;;;22.60;43.20;;;;;;4994164;28;20481;-44
2021/05/29 07:11:55;;;;;;;3.03;2.63;;;22.60;43.40;;;;;;4995090;28;20444;-44
2021/05/29 07:14:20;;;;;;;3.30;3.10;;;22.80;43.10;;;;;;4988917;28;20194;-44
2021/05/29 07:16:50;;;;;;;4.10;3.30;;;22.80;42.40;;;;;;4994621;28;20187;-48
2021/05/29 07:19:16;;;;;;;3.27;3.03;;;22.90;43.10;;;;;;4993887;28;20269;-48
2021/05/29 07:21:41;;;;;;;4.23;2.60;;;23.10;42.10;;;;;;4994508;28;20858;-48
2021/05/29 07:24:07;;;;;;;3.80;2.70;;;23.30;41.80;;;;;;4992873;28;20191;-48
2021/05/29 07:26:33;;;;;;;3.00;2.80;;;23.30;41.40;;;;;;4974545;28;20191;-45
2021/05/29 07:28:59;;;;;;;3.77;2.90;;;23.40;41.30;;;;;;4988836;28;20222;-46
2021/05/29 07:31:24;;;;;;;2.80;2.60;;;23.40;40.70;;;;;;4994391;28;20191;-49
2021/05/29 07:33:53;;;;;;;3.57;2.90;;;23.50;40.80;;;;;;4993329;28;21076;-48
2021/05/29 07:36:19;;;;;;;2.50;2.30;;;23.50;40.20;;;;;;4990017;28;20198;-49
2021/05/29 07:38:45;;;;;;;3.00;2.70;;;23.60;39.90;;;;;;4991947;28;20890;-48
2021/05/29 07:41:11;;;;;;;2.37;2.17;;;23.80;39.30;;;;;;4976602;28;20195;-47
2021/05/29 07:43:37;;;;;;;2.30;2.00;;;23.90;39.30;;;;;;4993436;28;20199;-49
2021/05/29 07:46:03;;;;;;;2.50;2.30;;;24.00;39.60;;;;;;4986173;28;20917;-49
2021/05/29 07:48:29;;;;;;;2.20;2.10;;;24.00;38.30;;;;;;4988933;28;20230;-49
2021/05/29 07:51:00;;;;;;;2.60;1.97;;;24.20;38.80;;;;;;4984515;28;20441;-48
2021/05/29 07:53:30;;;;;;;2.83;2.57;;;24.30;38.30;;;;;;4993478;28;20803;-49
2021/05/29 07:55:56;;;;;;;2.73;2.47;;;24.40;38.60;;;;;;4990883;28;20521;-49
2021/05/29 07:58:22;;;;;;;3.10;2.23;;;24.50;39.00;;;;;;4991108;28;20442;-49
2021/05/29 08:00:53;;;;;;;2.70;2.20;;;24.60;38.60;;;;;;4993173;28;20789;-48
2021/05/29 08:03:24;;;;;;;2.07;1.97;;;24.80;38.60;;;;;;4993163;28;20933;-48
2021/05/29 08:05:52;;;;;;;4.10;2.23;;;25.00;37.60;;;;;;4993457;28;20426;-48
2021/05/29 08:08:19;;;;;;;2.60;2.40;;;25.00;36.10;;;;;;4988231;28;20486;-48
2021/05/29 08:10:47;;;;;;;3.10;2.40;;;25.00;36.90;;;;;;4989507;28;20438;-48
2021/05/29 08:13:13;;;;;;;2.70;2.50;;;24.90;36.20;;;;;;4992874;28;20437;-49
2021/05/29 08:15:39;;;;;;;2.23;2.07;;;24.50;37.20;;;;;;4993094;28;20433;-46
2021/05/29 08:18:04;;;;;;;1.90;1.80;;;24.90;37.50;;;;;;4992013;28;20207;-50
2021/05/29 08:20:30;;;;;;;2.70;2.13;;;25.10;37.20;;;;;;4992232;28;20592;-49
2021/05/29 08:22:56;;;;;;;2.20;2.00;;;25.20;37.20;;;;;;4991767;28;20249;-47
2021/05/29 08:25:22;;;;;;;3.03;2.50;;;25.20;35.70;;;;;;4992515;28;20199;-45
2021/05/29 08:27:47;;;;;;;3.10;1.87;;;25.20;35.30;;;;;;4992511;28;20193;-49
2021/05/29 08:30:13;;;;;;;5.13;2.00;;;25.10;35.60;;;;;;4992490;28;20269;-49
2021/05/29 08:32:40;;;;;;;2.40;2.20;;;25.10;35.90;;;;;;4993035;28;20278;-46
2021/05/29 08:35:07;;;;;;;3.20;1.97;;;25.00;35.60;;;;;;4992339;28;20438;-49
2021/05/29 08:37:34;;;;;;;1.97;1.77;;;25.10;35.70;;;;;;4992513;28;20825;-48
2021/05/29 08:39:59;;;;;;;1.67;1.57;;;25.20;34.50;;;;;;4991696;28;20477;-45
2021/05/29 08:42:25;;;;;;;1.90;1.80;;;24.40;34.60;;;;;;4992963;28;20426;-49
2021/05/29 08:44:51;;;;;;;2.57;2.00;;;24.60;35.20;;;;;;4991111;28;20206;-46
2021/05/29 08:47:20;;;;;;;1.90;1.70;;;24.90;35.30;;;;;;4992261;28;20197;-48
2021/05/29 08:49:46;;;;;;;1.83;1.50;;;25.30;35.50;;;;;;4990229;28;20485;-45
2021/05/29 08:52:12;;;;;;;2.00;1.90;;;25.50;35.10;;;;;;4992854;28;20425;-48
2021/05/29 08:54:38;;;;;;;1.93;1.60;;;25.60;33.20;;;;;;4991964;28;20202;-45
2021/05/29 08:57:04;;;;;;;2.30;1.80;;;25.50;34.40;;;;;;4992186;28;20437;-47
2021/05/29 08:59:29;;;;;;;2.40;2.20;;;25.60;34.30;;;;;;4991815;28;20231;-47
2021/05/29 09:02:00;;;;;;;1.80;1.50;;;25.80;34.40;;;;;;4992246;28;20461;-46
2021/05/29 09:04:25;;;;;;;1.70;1.60;;;25.80;30.80;;;;;;4992235;28;20600;-46
2021/05/29 09:06:51;;;;;;;2.20;1.73;;;25.90;31.90;;;;;;4992375;28;20487;-49
2021/05/29 09:09:19;;;;;;;1.50;1.40;;;26.00;31.40;;;;;;4987869;28;20234;-45
2021/05/29 09:11:49;;;;;;;1.83;1.53;;;26.20;31.90;;;;;;4990643;28;20202;-49
2021/05/29 09:14:36;;;;;;;1.77;1.67;;;26.10;31.20;;;;;;4991855;28;20818;-49
2021/05/29 09:17:08;;;;;;;2.20;2.00;;;26.30;31.80;;;;;;4991061;28;20445;-49
2021/05/29 09:20:01;;;;;;;1.87;1.70;;;26.30;30.80;;;;;;4991821;28;20442;-47
2021/05/29 09:22:41;;;;;;;3.43;1.67;;;26.50;32.00;;;;;;4992312;28;20441;-49
2021/05/29 09:25:15;;;;;;;4.10;1.70;;;26.70;29.70;;;;;;4987145;28;20938;-49
2021/05/29 09:27:57;;;;;;;1.90;1.80;;;26.70;30.80;;;;;;4991581;28;20857;-46
2021/05/29 09:30:47;;;;;;;1.90;1.80;;;26.60;29.90;;;;;;4991919;28;20480;-49
2021/05/29 09:33:18;;;;;;;2.43;2.20;;;26.60;29.60;;;;;;4991517;28;20426;-44
2021/05/29 09:35:53;;;;;;;2.17;1.97;;;26.50;29.10;;;;;;4991535;28;20937;-49
2021/05/29 09:38:19;;;;;;;3.03;2.17;;;26.50;29.70;;;;;;4991407;28;20531;-44
2021/05/29 09:41:04;;;;;;;1.87;1.77;;;26.70;29.50;;;;;;4988656;28;20434;-46
2021/05/29 09:43:51;;;;;;;1.70;1.60;;;27.10;30.50;;;;;;4988284;28;20555;-48
2021/05/29 09:46:16;;;;;;;3.50;2.00;;;27.30;28.60;;;;;;4989491;28;20959;-49
2021/05/29 09:48:51;;;;;;;2.67;1.60;;;27.20;30.00;;;;;;4990519;28;20485;-46
2021/05/29 09:51:17;;;;;;;2.27;2.10;;;27.40;30.80;;;;;;4991822;28;20194;-50
2021/05/29 09:53:45;;;;;;;3.60;2.17;;;27.50;31.70;;;;;;4990980;28;20461;-50
2021/05/29 09:56:24;;;;;;;2.57;2.00;;;27.60;31.20;;;;;;4990403;28;20198;-48
2021/05/29 09:58:59;;;;;;;3.33;2.03;;;27.70;32.80;;;;;;4974724;28;20480;-47
2021/05/29 10:01:48;;;;;;;2.07;1.97;;;28.00;32.20;;;;;;4987635;28;20452;-48
2021/05/29 10:04:22;;;;;;;1.87;1.70;;;28.20;30.40;;;;;;4984386;28;20965;-48
2021/05/29 10:06:58;;;;;;;2.23;1.87;;;28.20;29.60;;;;;;4989270;28;20438;-46
2021/05/29 10:09:25;;;;;;;2.10;1.90;;;28.20;29.70;;;;;;4984131;28;21035;-47
2021/05/29 10:11:50;;;;;;;1.70;1.60;;;28.10;30.40;;;;;;4994212;28;21194;-48
2021/05/29 10:14:16;;;;;;;1.90;1.70;;;28.10;31.50;;;;;;4988842;28;20445;-46
2021/05/29 10:16:42;;;;;;;4.07;2.70;;;28.20;31.40;;;;;;4990824;28;20190;-46
2021/05/29 10:19:09;;;;;;;4.43;3.30;;;27.90;29.80;;;;;;4990549;28;20553;-49
2021/05/29 10:21:36;;;;;;;1.70;1.60;;;27.90;29.70;;;;;;4993848;28;20199;-47
2021/05/29 10:24:04;;;;;;;2.83;1.63;;;27.90;30.50;;;;;;4994520;28;20444;-49
2021/05/29 10:26:30;;;;;;;2.50;1.80;;;27.90;30.10;;;;;;4994142;28;20430;-51
2021/05/29 10:28:57;;;;;;;1.73;1.63;;;28.00;29.70;;;;;;4993869;28;20488;-49
2021/05/29 10:31:28;;;;;;;2.03;1.83;;;28.00;30.20;;;;;;4986080;28;20449;-46
2021/05/29 10:33:53;;;;;;;2.40;1.70;;;28.10;29.50;;;;;;4993373;28;20430;-46
2021/05/29 10:36:40;;;;;;;3.07;1.60;;;27.90;29.10;;;;;;4993373;28;20944;-48
2021/05/29 10:39:09;;;;;;;3.70;1.77;;;27.60;29.90;;;;;;4992354;28;20241;-49
2021/05/29 10:42:02;;;;;;;1.97;1.40;;;27.50;30.30;;;;;;4987648;28;20529;-48
2021/05/29 10:44:42;;;;;;;1.70;1.60;;;27.40;31.00;;;;;;4990951;28;20520;-47
2021/05/29 10:47:16;;;;;;;2.13;1.83;;;27.40;30.70;;;;;;4993872;28;20890;-48
2021/05/29 10:49:51;;;;;;;3.00;1.60;;;27.60;29.90;;;;;;4991464;28;20492;-46
2021/05/29 10:52:37;;;;;;;1.57;1.47;;;27.70;30.00;;;;;;4993679;28;20495;-46
2021/05/29 10:55:23;;;;;;;1.40;1.30;;;28.00;29.10;;;;;;4992061;28;20449;-46
2021/05/29 10:57:55;;;;;;;1.97;1.30;;;28.10;27.90;;;;;;4992635;28;20529;-47
2021/05/29 11:00:37;;;;;;;3.10;1.40;;;28.30;28.20;;;;;;4993485;28;20585;-49
2021/05/29 11:03:21;;;;;;;1.40;1.30;;;28.40;27.50;;;;;;4991746;28;20929;-49
2021/05/29 11:05:49;;;;;;;2.00;1.80;;;28.40;28.50;;;;;;4991892;28;20529;-49
2021/05/29 11:08:46;;;;;;;1.47;1.37;;;28.40;28.20;;;;;;4993444;28;20519;-49
2021/05/29 11:11:41;;;;;;;2.50;1.27;;;28.60;28.40;;;;;;4994188;28;20490;-50
2021/05/29 11:14:11;;;;;;;2.20;1.53;;;28.80;29.50;;;;;;4993072;28;20460;-50
2021/05/29 11:16:45;;;;;;;1.50;1.40;;;28.80;28.90;;;;;;4993230;28;20445;-49
2021/05/29 11:19:15;;;;;;;1.53;1.33;;;28.90;27.40;;;;;;4990485;28;20494;-46
2021/05/29 11:22:11;;;;;;;1.90;1.07;;;29.20;27.20;;;;;;4994020;28;20805;-46
2021/05/29 11:24:42;;;;;;;1.77;1.37;;;29.40;27.20;;;;;;4990012;28;20442;-47
2021/05/29 11:27:17;;;;;;;1.30;1.20;;;29.50;27.00;;;;;;4993603;28;20449;-49
2021/05/29 11:30:06;;;;;;;2.40;1.30;;;29.70;26.00;;;;;;4991756;28;20827;-50
2021/05/29 11:35:35;;;;;;;1.87;1.77;;;30.10;28.60;;;;;;4991407;28;20453;-48
2021/05/29 11:38:25;;;;;;;1.83;1.30;;;30.30;27.80;;;;;;4992823;28;20642;-48
2021/05/29 11:40:55;;;;;;;3.13;1.40;;;30.20;27.70;;;;;;4993088;28;20485;-45
2021/05/29 11:43:44;;;;;;;3.40;1.30;;;29.90;27.60;;;;;;4992355;28;20450;-45
2021/05/29 11:46:15;;;;;;;1.20;1.10;;;29.50;26.20;;;;;;4985529;28;20507;-44
2021/05/29 11:49:04;;;;;;;1.33;1.23;;;29.40;26.70;;;;;;4992289;28;20482;-46
2021/05/29 11:51:44;;;;;;;1.33;1.23;;;29.10;27.00;;;;;;4989363;28;20456;-47
2021/05/29 11:54:16;;;;;;;2.30;1.57;;;29.00;26.80;;;;;;4992263;28;20445;-50
2021/05/29 11:56:45;;;;;;;1.30;1.10;;;29.10;27.50;;;;;;4990906;28;20434;-46
2021/05/29 11:59:13;;;;;;;1.43;0.97;;;29.20;27.30;;;;;;4986493;28;20456;-46
2021/05/29 12:01:43;;;;;;;1.40;1.30;;;29.40;27.20;;;;;;4988142;28;20513;-46
2021/05/29 12:04:11;;;;;;;1.70;1.03;;;29.70;27.50;;;;;;4990035;28;20500;-45
2021/05/29 12:06:47;;;;;;;1.20;1.10;;;29.80;26.50;;;;;;4989246;28;20514;-44
2021/05/29 12:09:23;;;;;;;1.73;0.97;;;30.00;26.30;;;;;;4991934;28;20993;-45
2021/05/29 12:11:53;;;;;;;1.07;1.07;;;30.00;25.80;;;;;;4984421;28;20438;-46
2021/05/29 12:14:21;;;;;;;1.10;1.10;;;30.00;26.40;;;;;;4989019;28;20466;-44
2021/05/29 12:16:59;;;;;;;4.00;1.30;;;30.00;25.20;;;;;;4992490;28;20521;-45
2021/05/29 12:19:41;;;;;;;2.13;1.20;;;29.70;27.70;;;;;;4990617;28;20868;-45
2021/05/29 12:22:08;;;;;;;0.97;0.97;;;29.50;27.60;;;;;;4993024;28;20469;-48
2021/05/29 12:24:42;;;;;;;1.57;1.10;;;29.60;26.50;;;;;;4990796;28;20541;-46
2021/05/29 12:27:21;;;;;;;1.57;1.00;;;29.60;26.40;;;;;;4984817;28;21146;-44
2021/05/29 12:29:48;;;;;;;1.70;1.10;;;29.40;26.20;;;;;;4991393;28;20838;-47
2021/05/29 12:32:40;;;;;;;1.93;1.20;;;29.00;26.30;;;;;;4987978;28;20873;-44
2021/05/29 12:35:26;;;;;;;0.80;0.80;;;29.20;27.20;;;;;;4992547;28;20441;-47
2021/05/29 12:37:52;;;;;;;1.23;1.00;;;29.00;27.20;;;;;;4992122;28;20485;-48
2021/05/29 12:40:18;;;;;;;2.40;1.20;;;29.10;27.10;;;;;;4992550;28;20937;-49
2021/05/29 12:42:48;;;;;;;1.73;1.00;;;29.10;26.70;;;;;;4992492;28;20729;-44
2021/05/29 12:45:23;;;;;;;0.97;0.97;;;29.10;26.20;;;;;;4991705;28;20208;-45
2021/05/29 12:48:00;;;;;;;2.23;1.10;;;28.70;27.60;;;;;;4992505;28;20473;-49
2021/05/29 12:50:31;;;;;;;1.67;1.00;;;28.90;26.40;;;;;;4992913;28;20813;-45
2021/05/29 12:53:27;;;;;;;1.17;0.93;;;29.20;25.30;;;;;;4992143;28;20868;-45
2021/05/29 12:56:13;;;;;;;0.90;0.90;;;29.30;24.40;;;;;;4972975;28;20811;-44
2021/05/29 12:58:40;;;;;;;1.97;1.10;;;29.40;24.60;;;;;;4991689;28;20468;-44
2021/05/29 13:09:29;;;;;;;2.10;0.90;;;29.30;27.00;;;;;;4991677;28;20500;-45
2021/05/29 13:11:55;;;;;;;1.73;1.20;;;29.50;26.80;;;;;;4997855;28;20449;-45
2021/05/29 13:14:31;;;;;;;1.00;1.00;;;29.40;25.50;;;;;;4994552;28;20906;-49
2021/05/29 13:17:05;;;;;;;0.80;0.80;;;29.30;26.20;;;;;;4991997;28;21194;-45
2021/05/29 13:19:45;;;;;;;1.57;0.77;;;29.40;25.60;;;;;;4991946;28;20489;-47
2021/05/29 13:22:23;;;;;;;4.67;0.80;;;29.30;25.00;;;;;;4990389;28;20533;-46